Terminal Aerodrome Forecast
Issued by NWS Pendleton, OR

Home | Current Version | Previous Version | Text Only | Print | Product List | Glossary On
Versions: 1 2 3 4 5 6 7 8 9 10 11 12
000
FTUS46 KPDT 202300
TAFPDT
TAF
KPDT 202326Z 2100/2124 36007KT P6SM FEW300
     FM210400 14008KT P6SM SKC
     FM211200 15005KT P6SM FEW250
     FM211800 29009KT P6SM FEW050 SCT250=

USA.gov is the U.S. government's official web portal to all federal, state and local government web resources and services.